AQQ10 IFIS: Internet Flight Information System
logo dgac
Viernes 18 de Junio del 2021
Buscar por aerodromo o helipuerto
Ingrese nombre de aeródromo, localidad o designador OACI:
METAR del 18-06-2021 a las 21:00 UTC
Para mayor información visite www.meteochile.cl
METAR SCCF 182100Z 29023G33KT CAVOK 16/M03 Q1025
Viento: dirección 290 grados, velocidad 23 nudos, con ráfagas de velocidad máxima de 33Nudos
Visibilidad: 10 km o más,
    sin nubes bajo los 5.000 pies o bajo del MSA (Mínimo de Seguridad del Aeródromo),
    sin cumulonimbus, y sin fenómenos de tiempo significativo en el aeródromo o alrededores
Temperatura: 16 °C
Rocío: -3 °C
Humedad_relativa: 27%
Presión: 1025 hPa
METAR del 18-06-2021 a las 20:00 UTC
Para mayor información visite www.meteochile.cl
METAR SCCF 182000Z 29025G35KT CAVOK 17/M03 Q1025
Viento: dirección 290 grados, velocidad 25 nudos, con ráfagas de velocidad máxima de 35Nudos
Visibilidad: 10 km o más,
    sin nubes bajo los 5.000 pies o bajo del MSA (Mínimo de Seguridad del Aeródromo),
    sin cumulonimbus, y sin fenómenos de tiempo significativo en el aeródromo o alrededores
Temperatura: 17 °C
Rocío: -3 °C
Humedad_relativa: 25%
Presión: 1025 hPa
METAR del 18-06-2021 a las 19:00 UTC
Para mayor información visite www.meteochile.cl
METAR SCCF 181900Z 29025G38KT 9999 FEW060 16/M03 Q1025
Viento: dirección 290 grados, velocidad 25 nudos, con ráfagas de velocidad máxima de 38Nudos
Visibilidad: 10 km o más
Nubes: Escasa nubosidad a 6000 pies sobre el nivel del aeródromo
Temperatura: 16 °C
Rocío: -3 °C
Humedad_relativa: 27%
Presión: 1025 hPa
METAR del 18-06-2021 a las 18:00 UTC
Para mayor información visite www.meteochile.cl
METAR SCCF 181800Z 30023G33KT 9999 FEW060 17/M02 Q1026
Viento: dirección 300 grados, velocidad 23 nudos, con ráfagas de velocidad máxima de 33Nudos
Visibilidad: 10 km o más
Nubes: Escasa nubosidad a 6000 pies sobre el nivel del aeródromo
Temperatura: 17 °C
Rocío: -2 °C
Humedad_relativa: 27%
Presión: 1026 hPa
METAR del 18-06-2021 a las 17:00 UTC
Para mayor información visite www.meteochile.cl
METAR SCCF 181700Z 27021KT 9999 FEW060 16/M03 Q1026
Viento: dirección 270 grados, velocidad 21 nudos
Visibilidad: 10 km o más
Nubes: Escasa nubosidad a 6000 pies sobre el nivel del aeródromo
Temperatura: 16 °C
Rocío: -3 °C
Humedad_relativa: 27%
Presión: 1026 hPa
SPECI del 18-06-2021 a las 16:11 UTC
Para mayor información visite www.meteochile.cl
SPECI SCCF 181611Z AUTO 27019KT CAVOK 16/M03 Q1026
Nan: AUTO
Viento: dirección 270 grados, velocidad 19 nudos
Visibilidad: 10 km o más,
    sin nubes bajo los 5.000 pies o bajo del MSA (Mínimo de Seguridad del Aeródromo),
    sin cumulonimbus, y sin fenómenos de tiempo significativo en el aeródromo o alrededores
Temperatura: 16 °C
Rocío: -3 °C
Humedad_relativa: 27%
Presión: 1026 hPa
METAR del 18-06-2021 a las 16:00 UTC
Para mayor información visite www.meteochile.cl
METAR SCCF 181600Z AUTO 27020KT 9999 FEW079/// 16/M04 Q1026
Nan: AUTO
Viento: dirección 270 grados, velocidad 20 nudos
Visibilidad: 10 km o más
Nan: FEW079///
Temperatura: 16 °C
Rocío: -4 °C
Humedad_relativa: 25%
Presión: 1026 hPa
METAR del 18-06-2021 a las 15:00 UTC
Para mayor información visite www.meteochile.cl
METAR SCCF 181500Z AUTO 27019KT 9999 SCT077/// 16/M05 Q1026
Nan: AUTO
Viento: dirección 270 grados, velocidad 19 nudos
Visibilidad: 10 km o más
Nan: SCT077///
Temperatura: 16 °C
Rocío: -5 °C
Humedad_relativa: 23%
Presión: 1026 hPa
SPECI del 18-06-2021 a las 14:36 UTC
Para mayor información visite www.meteochile.cl
SPECI SCCF 181436Z AUTO 27016KT 9999 SCT077/// 16/M05 Q1026
Nan: AUTO
Viento: dirección 270 grados, velocidad 16 nudos
Visibilidad: 10 km o más
Nan: SCT077///
Temperatura: 16 °C
Rocío: -5 °C
Humedad_relativa: 23%
Presión: 1026 hPa
METAR del 18-06-2021 a las 14:00 UTC
Para mayor información visite www.meteochile.cl
METAR SCCF 181400Z AUTO 31006KT 260V350 9999 SCT078/// 14/M05 Q1026
Nan: AUTO
Viento: dirección 310 grados, velocidad 6 nudos
Viento con dirección variable entre 260 y 350 grados
Visibilidad: 10 km o más
Nan: SCT078///
Temperatura: 14 °C
Rocío: -5 °C
Humedad_relativa: 26%
Presión: 1026 hPa